sensor_id;sensor_type;location;lat;lon;timestamp;P1;durP1;ratioP1;P2;durP2;ratioP2
77111;SDS011;66064;50.226;14.344;2023-06-14T00:02:12;8.15;;;7.45;;
77111;SDS011;66064;50.226;14.344;2023-06-14T00:04:38;11.73;;;8.52;;
77111;SDS011;66064;50.226;14.344;2023-06-14T00:07:07;8.65;;;7.85;;
77111;SDS011;66064;50.226;14.344;2023-06-14T00:09:34;10.43;;;9.20;;
77111;SDS011;66064;50.226;14.344;2023-06-14T00:12:00;9.00;;;8.18;;
77111;SDS011;66064;50.226;14.344;2023-06-14T00:14:27;9.57;;;8.48;;
77111;SDS011;66064;50.226;14.344;2023-06-14T00:16:53;9.05;;;8.32;;
77111;SDS011;66064;50.226;14.344;2023-06-14T00:19:24;8.18;;;7.47;;
77111;SDS011;66064;50.226;14.344;2023-06-14T00:21:50;7.95;;;7.25;;
77111;SDS011;66064;50.226;14.344;2023-06-14T00:24:18;8.02;;;7.28;;
77111;SDS011;66064;50.226;14.344;2023-06-14T00:26:45;8.32;;;7.65;;
77111;SDS011;66064;50.226;14.344;2023-06-14T00:29:11;9.02;;;7.40;;
77111;SDS011;66064;50.226;14.344;2023-06-14T00:31:37;9.00;;;8.15;;
77111;SDS011;66064;50.226;14.344;2023-06-14T00:34:02;9.77;;;8.93;;
77111;SDS011;66064;50.226;14.344;2023-06-14T00:36:28;9.20;;;8.32;;
77111;SDS011;66064;50.226;14.344;2023-06-14T00:38:54;11.52;;;8.80;;
77111;SDS011;66064;50.226;14.344;2023-06-14T00:41:20;9.98;;;9.18;;
77111;SDS011;66064;50.226;14.344;2023-06-14T00:43:46;8.52;;;6.93;;
77111;SDS011;66064;50.226;14.344;2023-06-14T00:46:12;11.10;;;9.40;;
77111;SDS011;66064;50.226;14.344;2023-06-14T00:48:38;8.30;;;7.53;;
77111;SDS011;66064;50.226;14.344;2023-06-14T00:51:05;9.48;;;8.68;;
77111;SDS011;66064;50.226;14.344;2023-06-14T00:53:31;8.90;;;7.18;;
77111;SDS011;66064;50.226;14.344;2023-06-14T00:56:01;8.93;;;8.23;;
77111;SDS011;66064;50.226;14.344;2023-06-14T00:58:27;9.75;;;8.95;;
77111;SDS011;66064;50.226;14.344;2023-06-14T01:00:54;10.38;;;9.60;;
77111;SDS011;66064;50.226;14.344;2023-06-14T01:03:20;10.73;;;8.43;;
77111;SDS011;66064;50.226;14.344;2023-06-14T01:05:48;10.02;;;9.13;;
77111;SDS011;66064;50.226;14.344;2023-06-14T01:11:10;9.25;;;8.43;;
77111;SDS011;66064;50.226;14.344;2023-06-14T01:13:41;9.43;;;8.65;;
77111;SDS011;66064;50.226;14.344;2023-06-14T01:16:11;8.73;;;7.90;;
77111;SDS011;66064;50.226;14.344;2023-06-14T01:18:37;9.10;;;7.10;;
77111;SDS011;66064;50.226;14.344;2023-06-14T01:21:04;8.10;;;7.50;;
77111;SDS011;66064;50.226;14.344;2023-06-14T01:23:31;8.65;;;7.80;;
77111;SDS011;66064;50.226;14.344;2023-06-14T01:26:00;8.63;;;7.93;;
77111;SDS011;66064;50.226;14.344;2023-06-14T01:28:28;8.27;;;7.57;;
77111;SDS011;66064;50.226;14.344;2023-06-14T01:31:00;9.98;;;9.13;;
77111;SDS011;66064;50.226;14.344;2023-06-14T01:33:30;9.15;;;8.30;;
77111;SDS011;66064;50.226;14.344;2023-06-14T01:35:59;10.68;;;9.75;;
77111;SDS011;66064;50.226;14.344;2023-06-14T01:38:26;10.63;;;9.77;;
77111;SDS011;66064;50.226;14.344;2023-06-14T01:40:54;9.60;;;8.80;;
77111;SDS011;66064;50.226;14.344;2023-06-14T01:43:22;9.23;;;8.27;;
77111;SDS011;66064;50.226;14.344;2023-06-14T01:45:50;11.40;;;10.35;;
77111;SDS011;66064;50.226;14.344;2023-06-14T01:48:17;7.93;;;7.20;;
77111;SDS011;66064;50.226;14.344;2023-06-14T01:50:45;8.93;;;8.13;;
77111;SDS011;66064;50.226;14.344;2023-06-14T01:53:11;9.95;;;9.25;;
77111;SDS011;66064;50.226;14.344;2023-06-14T01:55:37;10.93;;;10.02;;
77111;SDS011;66064;50.226;14.344;2023-06-14T01:58:03;9.30;;;8.40;;
77111;SDS011;66064;50.226;14.344;2023-06-14T02:00:30;8.82;;;7.93;;
77111;SDS011;66064;50.226;14.344;2023-06-14T02:02:56;10.07;;;9.05;;
77111;SDS011;66064;50.226;14.344;2023-06-14T02:05:22;9.63;;;8.73;;
77111;SDS011;66064;50.226;14.344;2023-06-14T02:07:49;11.10;;;9.55;;
77111;SDS011;66064;50.226;14.344;2023-06-14T02:10:16;11.98;;;10.93;;
77111;SDS011;66064;50.226;14.344;2023-06-14T02:12:43;10.00;;;9.27;;
77111;SDS011;66064;50.226;14.344;2023-06-14T02:15:09;8.63;;;7.78;;
77111;SDS011;66064;50.226;14.344;2023-06-14T02:17:51;14.02;;;9.13;;
77111;SDS011;66064;50.226;14.344;2023-06-14T02:20:17;11.13;;;9.68;;
77111;SDS011;66064;50.226;14.344;2023-06-14T02:22:43;10.32;;;9.38;;
77111;SDS011;66064;50.226;14.344;2023-06-14T02:25:10;9.90;;;9.20;;
77111;SDS011;66064;50.226;14.344;2023-06-14T02:27:36;11.35;;;10.05;;
77111;SDS011;66064;50.226;14.344;2023-06-14T02:30:02;11.40;;;9.50;;
77111;SDS011;66064;50.226;14.344;2023-06-14T02:32:29;11.48;;;10.68;;
77111;SDS011;66064;50.226;14.344;2023-06-14T02:34:55;9.63;;;8.93;;
77111;SDS011;66064;50.226;14.344;2023-06-14T02:37:21;10.20;;;9.32;;
77111;SDS011;66064;50.226;14.344;2023-06-14T02:39:48;10.15;;;9.25;;
77111;SDS011;66064;50.226;14.344;2023-06-14T02:42:13;9.98;;;9.05;;
77111;SDS011;66064;50.226;14.344;2023-06-14T02:44:40;10.05;;;9.25;;
77111;SDS011;66064;50.226;14.344;2023-06-14T02:47:06;12.20;;;11.18;;
77111;SDS011;66064;50.226;14.344;2023-06-14T02:49:32;11.82;;;10.73;;
77111;SDS011;66064;50.226;14.344;2023-06-14T02:51:58;15.10;;;10.48;;
77111;SDS011;66064;50.226;14.344;2023-06-14T02:54:24;10.23;;;9.13;;
77111;SDS011;66064;50.226;14.344;2023-06-14T02:56:49;10.18;;;8.75;;
77111;SDS011;66064;50.226;14.344;2023-06-14T02:59:16;10.05;;;9.05;;
77111;SDS011;66064;50.226;14.344;2023-06-14T03:01:42;12.02;;;10.93;;
77111;SDS011;66064;50.226;14.344;2023-06-14T03:04:08;10.45;;;9.65;;
77111;SDS011;66064;50.226;14.344;2023-06-14T03:06:34;11.00;;;9.95;;
77111;SDS011;66064;50.226;14.344;2023-06-14T03:09:02;12.52;;;10.70;;
77111;SDS011;66064;50.226;14.344;2023-06-14T03:11:32;9.35;;;8.55;;
77111;SDS011;66064;50.226;14.344;2023-06-14T03:13:59;9.23;;;8.52;;
77111;SDS011;66064;50.226;14.344;2023-06-14T03:16:25;10.45;;;9.32;;
77111;SDS011;66064;50.226;14.344;2023-06-14T03:18:54;9.10;;;8.30;;
77111;SDS011;66064;50.226;14.344;2023-06-14T03:21:20;9.93;;;9.13;;
77111;SDS011;66064;50.226;14.344;2023-06-14T03:23:46;11.48;;;10.38;;
77111;SDS011;66064;50.226;14.344;2023-06-14T03:26:13;10.05;;;9.20;;
77111;SDS011;66064;50.226;14.344;2023-06-14T03:28:40;11.35;;;10.20;;
77111;SDS011;66064;50.226;14.344;2023-06-14T03:31:07;10.75;;;9.90;;
77111;SDS011;66064;50.226;14.344;2023-06-14T03:33:34;9.25;;;8.43;;
77111;SDS011;66064;50.226;14.344;2023-06-14T03:36:01;9.95;;;8.98;;
77111;SDS011;66064;50.226;14.344;2023-06-14T03:38:27;9.82;;;8.93;;
77111;SDS011;66064;50.226;14.344;2023-06-14T03:40:53;10.95;;;9.98;;
77111;SDS011;66064;50.226;14.344;2023-06-14T03:43:19;12.02;;;8.50;;
77111;SDS011;66064;50.226;14.344;2023-06-14T03:45:45;10.25;;;9.45;;
77111;SDS011;66064;50.226;14.344;2023-06-14T03:48:11;11.43;;;10.25;;
77111;SDS011;66064;50.226;14.344;2023-06-14T03:50:37;10.15;;;9.35;;
77111;SDS011;66064;50.226;14.344;2023-06-14T03:53:03;10.75;;;9.10;;
77111;SDS011;66064;50.226;14.344;2023-06-14T03:55:30;12.50;;;11.43;;
77111;SDS011;66064;50.226;14.344;2023-06-14T03:57:56;11.30;;;10.32;;
77111;SDS011;66064;50.226;14.344;2023-06-14T04:00:23;12.73;;;11.63;;
77111;SDS011;66064;50.226;14.344;2023-06-14T04:02:49;10.55;;;9.63;;
77111;SDS011;66064;50.226;14.344;2023-06-14T04:05:15;11.50;;;10.30;;
77111;SDS011;66064;50.226;14.344;2023-06-14T04:07:47;12.88;;;11.85;;
77111;SDS011;66064;50.226;14.344;2023-06-14T04:10:15;12.65;;;11.60;;
77111;SDS011;66064;50.226;14.344;2023-06-14T04:12:41;11.80;;;9.65;;
77111;SDS011;66064;50.226;14.344;2023-06-14T04:15:08;12.73;;;11.45;;
77111;SDS011;66064;50.226;14.344;2023-06-14T04:17:35;11.35;;;9.73;;
77111;SDS011;66064;50.226;14.344;2023-06-14T04:20:02;11.13;;;10.05;;
77111;SDS011;66064;50.226;14.344;2023-06-14T04:22:30;12.00;;;10.90;;
77111;SDS011;66064;50.226;14.344;2023-06-14T04:24:57;13.70;;;9.25;;
77111;SDS011;66064;50.226;14.344;2023-06-14T04:27:23;10.40;;;9.38;;
77111;SDS011;66064;50.226;14.344;2023-06-14T04:29:51;10.38;;;8.77;;
77111;SDS011;66064;50.226;14.344;2023-06-14T04:32:25;11.35;;;10.15;;
77111;SDS011;66064;50.226;14.344;2023-06-14T04:34:53;12.38;;;10.07;;
77111;SDS011;66064;50.226;14.344;2023-06-14T04:37:20;9.38;;;8.43;;
77111;SDS011;66064;50.226;14.344;2023-06-14T04:39:49;13.02;;;8.85;;
77111;SDS011;66064;50.226;14.344;2023-06-14T04:42:15;10.93;;;8.50;;
77111;SDS011;66064;50.226;14.344;2023-06-14T04:44:42;8.23;;;7.40;;
77111;SDS011;66064;50.226;14.344;2023-06-14T04:47:12;11.50;;;7.47;;
77111;SDS011;66064;50.226;14.344;2023-06-14T04:49:39;7.68;;;6.97;;
77111;SDS011;66064;50.226;14.344;2023-06-14T04:52:06;10.02;;;7.72;;
77111;SDS011;66064;50.226;14.344;2023-06-14T04:57:22;7.68;;;6.70;;
77111;SDS011;66064;50.226;14.344;2023-06-14T04:59:57;10.45;;;6.28;;
77111;SDS011;66064;50.226;14.344;2023-06-14T05:02:23;7.65;;;6.88;;
77111;SDS011;66064;50.226;14.344;2023-06-14T05:04:50;7.70;;;6.78;;
77111;SDS011;66064;50.226;14.344;2023-06-14T05:07:16;7.45;;;6.50;;
77111;SDS011;66064;50.226;14.344;2023-06-14T05:09:42;10.45;;;5.93;;
77111;SDS011;66064;50.226;14.344;2023-06-14T05:12:08;6.97;;;6.28;;
77111;SDS011;66064;50.226;14.344;2023-06-14T05:14:35;6.05;;;5.32;;
77111;SDS011;66064;50.226;14.344;2023-06-14T05:17:01;7.95;;;5.90;;
77111;SDS011;66064;50.226;14.344;2023-06-14T05:19:28;8.00;;;5.25;;
77111;SDS011;66064;50.226;14.344;2023-06-14T05:21:54;6.22;;;5.40;;
77111;SDS011;66064;50.226;14.344;2023-06-14T05:24:20;7.57;;;5.35;;
77111;SDS011;66064;50.226;14.344;2023-06-14T05:26:46;7.25;;;5.05;;
77111;SDS011;66064;50.226;14.344;2023-06-14T05:29:12;5.70;;;5.20;;
77111;SDS011;66064;50.226;14.344;2023-06-14T05:31:38;10.77;;;5.50;;
77111;SDS011;66064;50.226;14.344;2023-06-14T05:34:04;8.43;;;5.38;;
77111;SDS011;66064;50.226;14.344;2023-06-14T05:36:30;6.38;;;5.30;;
77111;SDS011;66064;50.226;14.344;2023-06-14T05:38:56;6.32;;;5.38;;
77111;SDS011;66064;50.226;14.344;2023-06-14T05:41:28;7.65;;;5.72;;
77111;SDS011;66064;50.226;14.344;2023-06-14T05:43:55;6.40;;;5.57;;
77111;SDS011;66064;50.226;14.344;2023-06-14T05:46:21;6.35;;;5.20;;
77111;SDS011;66064;50.226;14.344;2023-06-14T05:48:50;5.90;;;4.20;;
77111;SDS011;66064;50.226;14.344;2023-06-14T05:51:17;4.95;;;4.07;;
77111;SDS011;66064;50.226;14.344;2023-06-14T05:53:46;4.82;;;4.03;;
77111;SDS011;66064;50.226;14.344;2023-06-14T05:56:15;4.90;;;4.38;;
77111;SDS011;66064;50.226;14.344;2023-06-14T05:58:45;7.50;;;4.75;;
77111;SDS011;66064;50.226;14.344;2023-06-14T06:01:12;8.68;;;4.72;;
77111;SDS011;66064;50.226;14.344;2023-06-14T06:03:38;6.30;;;4.80;;
77111;SDS011;66064;50.226;14.344;2023-06-14T06:06:05;6.43;;;4.30;;
77111;SDS011;66064;50.226;14.344;2023-06-14T06:08:31;5.45;;;4.32;;
77111;SDS011;66064;50.226;14.344;2023-06-14T06:10:58;6.57;;;3.95;;
77111;SDS011;66064;50.226;14.344;2023-06-14T06:13:25;6.85;;;5.43;;
77111;SDS011;66064;50.226;14.344;2023-06-14T06:15:51;6.57;;;4.18;;
77111;SDS011;66064;50.226;14.344;2023-06-14T06:18:17;4.97;;;3.85;;
77111;SDS011;66064;50.226;14.344;2023-06-14T06:20:43;5.50;;;4.25;;
77111;SDS011;66064;50.226;14.344;2023-06-14T06:23:09;5.63;;;4.07;;
77111;SDS011;66064;50.226;14.344;2023-06-14T06:25:35;5.43;;;3.75;;
77111;SDS011;66064;50.226;14.344;2023-06-14T06:28:01;5.05;;;3.70;;
77111;SDS011;66064;50.226;14.344;2023-06-14T06:30:27;5.30;;;4.05;;
77111;SDS011;66064;50.226;14.344;2023-06-14T06:32:53;4.78;;;4.00;;
77111;SDS011;66064;50.226;14.344;2023-06-14T06:35:21;7.97;;;4.15;;
77111;SDS011;66064;50.226;14.344;2023-06-14T06:37:47;7.05;;;4.45;;
77111;SDS011;66064;50.226;14.344;2023-06-14T06:40:13;5.85;;;4.65;;
77111;SDS011;66064;50.226;14.344;2023-06-14T06:42:39;5.72;;;4.35;;
77111;SDS011;66064;50.226;14.344;2023-06-14T06:45:06;8.05;;;5.30;;
77111;SDS011;66064;50.226;14.344;2023-06-14T06:47:32;6.78;;;4.38;;
77111;SDS011;66064;50.226;14.344;2023-06-14T06:49:58;4.95;;;4.13;;
77111;SDS011;66064;50.226;14.344;2023-06-14T06:52:24;5.80;;;4.03;;
77111;SDS011;66064;50.226;14.344;2023-06-14T06:54:50;6.15;;;3.92;;
77111;SDS011;66064;50.226;14.344;2023-06-14T06:57:20;4.65;;;4.25;;
77111;SDS011;66064;50.226;14.344;2023-06-14T06:59:48;4.63;;;3.95;;
77111;SDS011;66064;50.226;14.344;2023-06-14T07:02:15;5.30;;;3.90;;
77111;SDS011;66064;50.226;14.344;2023-06-14T07:04:41;8.55;;;4.07;;
77111;SDS011;66064;50.226;14.344;2023-06-14T07:07:07;4.20;;;3.60;;
77111;SDS011;66064;50.226;14.344;2023-06-14T07:09:35;4.95;;;3.33;;
77111;SDS011;66064;50.226;14.344;2023-06-14T07:12:01;5.07;;;3.83;;
77111;SDS011;66064;50.226;14.344;2023-06-14T07:14:27;4.50;;;3.22;;
77111;SDS011;66064;50.226;14.344;2023-06-14T07:16:54;4.00;;;3.10;;
77111;SDS011;66064;50.226;14.344;2023-06-14T07:19:20;4.97;;;3.08;;
77111;SDS011;66064;50.226;14.344;2023-06-14T07:21:46;5.18;;;3.47;;
77111;SDS011;66064;50.226;14.344;2023-06-14T07:24:13;4.93;;;3.38;;
77111;SDS011;66064;50.226;14.344;2023-06-14T07:26:39;4.28;;;2.65;;
77111;SDS011;66064;50.226;14.344;2023-06-14T07:29:05;4.85;;;3.00;;
77111;SDS011;66064;50.226;14.344;2023-06-14T07:31:31;4.07;;;2.90;;
77111;SDS011;66064;50.226;14.344;2023-06-14T07:33:57;4.30;;;3.00;;
77111;SDS011;66064;50.226;14.344;2023-06-14T07:36:22;4.30;;;2.90;;
77111;SDS011;66064;50.226;14.344;2023-06-14T07:38:48;3.53;;;2.60;;
77111;SDS011;66064;50.226;14.344;2023-06-14T07:41:15;5.40;;;2.90;;
77111;SDS011;66064;50.226;14.344;2023-06-14T07:43:41;4.20;;;2.75;;
77111;SDS011;66064;50.226;14.344;2023-06-14T07:46:07;5.05;;;2.75;;
77111;SDS011;66064;50.226;14.344;2023-06-14T07:48:34;4.43;;;2.88;;
77111;SDS011;66064;50.226;14.344;2023-06-14T07:51:00;5.63;;;2.70;;
77111;SDS011;66064;50.226;14.344;2023-06-14T07:53:27;3.78;;;2.80;;
77111;SDS011;66064;50.226;14.344;2023-06-14T07:55:53;4.35;;;2.80;;
77111;SDS011;66064;50.226;14.344;2023-06-14T07:58:19;4.35;;;2.90;;
77111;SDS011;66064;50.226;14.344;2023-06-14T08:00:45;5.00;;;2.80;;
77111;SDS011;66064;50.226;14.344;2023-06-14T08:03:11;5.72;;;3.55;;
77111;SDS011;66064;50.226;14.344;2023-06-14T08:05:37;5.90;;;2.88;;
77111;SDS011;66064;50.226;14.344;2023-06-14T08:08:04;4.90;;;3.15;;
77111;SDS011;66064;50.226;14.344;2023-06-14T08:10:29;4.10;;;2.60;;
77111;SDS011;66064;50.226;14.344;2023-06-14T08:12:55;5.03;;;2.67;;
77111;SDS011;66064;50.226;14.344;2023-06-14T08:15:21;4.00;;;3.00;;
77111;SDS011;66064;50.226;14.344;2023-06-14T08:17:47;5.05;;;2.92;;
77111;SDS011;66064;50.226;14.344;2023-06-14T08:20:13;4.82;;;2.88;;
77111;SDS011;66064;50.226;14.344;2023-06-14T08:22:42;5.68;;;3.08;;
77111;SDS011;66064;50.226;14.344;2023-06-14T08:25:08;5.15;;;3.20;;
77111;SDS011;66064;50.226;14.344;2023-06-14T08:27:36;3.75;;;2.80;;
77111;SDS011;66064;50.226;14.344;2023-06-14T08:30:06;4.53;;;2.90;;
77111;SDS011;66064;50.226;14.344;2023-06-14T08:32:33;4.63;;;2.60;;
77111;SDS011;66064;50.226;14.344;2023-06-14T08:34:59;8.38;;;3.05;;
77111;SDS011;66064;50.226;14.344;2023-06-14T08:37:25;4.60;;;3.03;;
77111;SDS011;66064;50.226;14.344;2023-06-14T08:39:52;4.57;;;2.80;;
77111;SDS011;66064;50.226;14.344;2023-06-14T08:42:18;4.68;;;2.75;;
77111;SDS011;66064;50.226;14.344;2023-06-14T08:44:46;4.13;;;2.90;;
77111;SDS011;66064;50.226;14.344;2023-06-14T08:47:12;5.40;;;3.50;;
77111;SDS011;66064;50.226;14.344;2023-06-14T08:49:41;5.28;;;2.97;;
77111;SDS011;66064;50.226;14.344;2023-06-14T08:52:12;5.50;;;3.00;;
77111;SDS011;66064;50.226;14.344;2023-06-14T08:54:43;4.32;;;3.25;;
77111;SDS011;66064;50.226;14.344;2023-06-14T08:57:11;4.13;;;3.33;;
77111;SDS011;66064;50.226;14.344;2023-06-14T08:59:49;6.00;;;3.58;;
77111;SDS011;66064;50.226;14.344;2023-06-14T09:02:18;5.05;;;3.70;;
77111;SDS011;66064;50.226;14.344;2023-06-14T09:04:45;4.30;;;3.45;;
77111;SDS011;66064;50.226;14.344;2023-06-14T09:07:11;4.10;;;3.35;;
77111;SDS011;66064;50.226;14.344;2023-06-14T09:09:38;4.50;;;3.00;;
77111;SDS011;66064;50.226;14.344;2023-06-14T09:12:07;6.32;;;3.15;;
77111;SDS011;66064;50.226;14.344;2023-06-14T09:14:36;4.47;;;3.17;;
77111;SDS011;66064;50.226;14.344;2023-06-14T09:17:05;5.28;;;2.97;;
77111;SDS011;66064;50.226;14.344;2023-06-14T09:19:31;3.85;;;2.88;;
77111;SDS011;66064;50.226;14.344;2023-06-14T09:21:57;3.97;;;2.85;;
77111;SDS011;66064;50.226;14.344;2023-06-14T09:24:24;4.75;;;3.30;;
77111;SDS011;66064;50.226;14.344;2023-06-14T09:26:53;4.28;;;3.17;;
77111;SDS011;66064;50.226;14.344;2023-06-14T09:29:19;4.13;;;3.10;;
77111;SDS011;66064;50.226;14.344;2023-06-14T09:31:46;6.45;;;3.30;;
77111;SDS011;66064;50.226;14.344;2023-06-14T09:34:13;5.32;;;3.03;;
77111;SDS011;66064;50.226;14.344;2023-06-14T09:36:39;5.30;;;3.10;;
77111;SDS011;66064;50.226;14.344;2023-06-14T09:39:06;3.88;;;3.10;;
77111;SDS011;66064;50.226;14.344;2023-06-14T09:41:37;5.97;;;3.40;;
77111;SDS011;66064;50.226;14.344;2023-06-14T09:44:05;4.32;;;3.08;;
77111;SDS011;66064;50.226;14.344;2023-06-14T09:46:33;4.80;;;3.45;;
77111;SDS011;66064;50.226;14.344;2023-06-14T09:49:00;6.97;;;3.70;;
77111;SDS011;66064;50.226;14.344;2023-06-14T09:51:27;4.88;;;3.17;;
77111;SDS011;66064;50.226;14.344;2023-06-14T09:53:58;5.15;;;3.47;;
77111;SDS011;66064;50.226;14.344;2023-06-14T09:59:18;4.60;;;3.42;;
77111;SDS011;66064;50.226;14.344;2023-06-14T10:01:47;5.45;;;3.63;;
77111;SDS011;66064;50.226;14.344;2023-06-14T10:04:15;4.72;;;3.08;;
77111;SDS011;66064;50.226;14.344;2023-06-14T10:06:45;4.55;;;3.28;;
77111;SDS011;66064;50.226;14.344;2023-06-14T10:09:11;3.45;;;2.90;;
77111;SDS011;66064;50.226;14.344;2023-06-14T10:11:38;4.30;;;3.05;;
77111;SDS011;66064;50.226;14.344;2023-06-14T10:14:09;3.90;;;2.60;;
77111;SDS011;66064;50.226;14.344;2023-06-14T10:16:39;3.47;;;2.78;;
77111;SDS011;66064;50.226;14.344;2023-06-14T10:19:18;6.22;;;3.03;;
77111;SDS011;66064;50.226;14.344;2023-06-14T10:22:01;4.93;;;2.88;;
77111;SDS011;66064;50.226;14.344;2023-06-14T10:24:41;6.15;;;3.25;;
77111;SDS011;66064;50.226;14.344;2023-06-14T10:27:09;4.63;;;3.00;;
77111;SDS011;66064;50.226;14.344;2023-06-14T10:30:25;5.07;;;3.00;;
77111;SDS011;66064;50.226;14.344;2023-06-14T10:32:25;4.65;;;3.10;;
77111;SDS011;66064;50.226;14.344;2023-06-14T10:37:20;4.88;;;3.35;;
77111;SDS011;66064;50.226;14.344;2023-06-14T10:39:46;4.45;;;3.40;;
77111;SDS011;66064;50.226;14.344;2023-06-14T10:42:12;4.95;;;3.03;;
77111;SDS011;66064;50.226;14.344;2023-06-14T10:44:40;4.57;;;3.55;;
77111;SDS011;66064;50.226;14.344;2023-06-14T10:47:09;5.10;;;3.08;;
77111;SDS011;66064;50.226;14.344;2023-06-14T10:49:45;5.05;;;3.00;;
77111;SDS011;66064;50.226;14.344;2023-06-14T10:52:16;6.03;;;3.08;;
77111;SDS011;66064;50.226;14.344;2023-06-14T10:54:56;3.83;;;2.83;;
77111;SDS011;66064;50.226;14.344;2023-06-14T10:57:24;3.53;;;2.50;;
77111;SDS011;66064;50.226;14.344;2023-06-14T10:59:50;3.20;;;2.40;;
77111;SDS011;66064;50.226;14.344;2023-06-14T11:05:23;3.85;;;3.05;;
77111;SDS011;66064;50.226;14.344;2023-06-14T11:10:41;3.33;;;2.92;;
77111;SDS011;66064;50.226;14.344;2023-06-14T11:15:36;3.42;;;2.70;;
77111;SDS011;66064;50.226;14.344;2023-06-14T11:18:07;4.38;;;3.53;;
77111;SDS011;66064;50.226;14.344;2023-06-14T11:20:35;4.00;;;2.95;;
77111;SDS011;66064;50.226;14.344;2023-06-14T11:23:02;4.05;;;3.30;;
77111;SDS011;66064;50.226;14.344;2023-06-14T11:25:29;6.57;;;3.92;;
77111;SDS011;66064;50.226;14.344;2023-06-14T11:27:56;4.65;;;3.40;;
77111;SDS011;66064;50.226;14.344;2023-06-14T11:30:22;4.10;;;3.28;;
77111;SDS011;66064;50.226;14.344;2023-06-14T11:32:49;4.93;;;3.72;;
77111;SDS011;66064;50.226;14.344;2023-06-14T11:35:17;4.88;;;3.78;;
77111;SDS011;66064;50.226;14.344;2023-06-14T11:37:44;4.97;;;3.85;;
77111;SDS011;66064;50.226;14.344;2023-06-14T11:40:11;4.13;;;3.28;;
77111;SDS011;66064;50.226;14.344;2023-06-14T11:42:39;5.32;;;3.63;;
77111;SDS011;66064;50.226;14.344;2023-06-14T11:45:09;4.63;;;3.83;;
77111;SDS011;66064;50.226;14.344;2023-06-14T11:47:38;4.53;;;3.30;;
77111;SDS011;66064;50.226;14.344;2023-06-14T11:50:05;4.78;;;3.53;;
77111;SDS011;66064;50.226;14.344;2023-06-14T11:52:34;4.72;;;3.90;;
77111;SDS011;66064;50.226;14.344;2023-06-14T11:57:35;4.28;;;3.42;;
77111;SDS011;66064;50.226;14.344;2023-06-14T12:00:05;4.25;;;3.40;;
77111;SDS011;66064;50.226;14.344;2023-06-14T12:02:41;4.18;;;3.50;;
77111;SDS011;66064;50.226;14.344;2023-06-14T12:05:07;4.97;;;3.60;;
77111;SDS011;66064;50.226;14.344;2023-06-14T12:07:38;4.15;;;3.28;;
77111;SDS011;66064;50.226;14.344;2023-06-14T12:10:08;4.15;;;3.58;;
77111;SDS011;66064;50.226;14.344;2023-06-14T12:12:37;4.20;;;3.40;;
77111;SDS011;66064;50.226;14.344;2023-06-14T12:15:04;5.07;;;3.53;;
77111;SDS011;66064;50.226;14.344;2023-06-14T12:17:32;5.32;;;3.13;;
77111;SDS011;66064;50.226;14.344;2023-06-14T12:20:04;5.03;;;3.88;;
77111;SDS011;66064;50.226;14.344;2023-06-14T12:22:55;4.47;;;3.35;;
77111;SDS011;66064;50.226;14.344;2023-06-14T12:30:37;4.45;;;3.90;;
77111;SDS011;66064;50.226;14.344;2023-06-14T12:33:04;7.32;;;3.45;;
77111;SDS011;66064;50.226;14.344;2023-06-14T12:35:30;5.22;;;3.20;;
77111;SDS011;66064;50.226;14.344;2023-06-14T12:37:57;4.15;;;2.92;;
77111;SDS011;66064;50.226;14.344;2023-06-14T12:40:23;4.72;;;3.45;;
77111;SDS011;66064;50.226;14.344;2023-06-14T12:42:49;3.50;;;2.97;;
77111;SDS011;66064;50.226;14.344;2023-06-14T12:45:15;4.75;;;3.28;;
77111;SDS011;66064;50.226;14.344;2023-06-14T12:47:41;5.18;;;3.30;;
77111;SDS011;66064;50.226;14.344;2023-06-14T12:50:07;5.35;;;3.80;;
77111;SDS011;66064;50.226;14.344;2023-06-14T12:52:34;5.80;;;3.40;;
77111;SDS011;66064;50.226;14.344;2023-06-14T12:55:03;9.15;;;3.78;;
77111;SDS011;66064;50.226;14.344;2023-06-14T12:57:30;3.42;;;2.90;;
77111;SDS011;66064;50.226;14.344;2023-06-14T12:59:57;4.85;;;3.00;;
77111;SDS011;66064;50.226;14.344;2023-06-14T13:02:23;3.08;;;2.63;;
77111;SDS011;66064;50.226;14.344;2023-06-14T13:04:50;4.47;;;3.50;;
77111;SDS011;66064;50.226;14.344;2023-06-14T13:07:16;6.57;;;3.88;;
77111;SDS011;66064;50.226;14.344;2023-06-14T13:09:42;4.90;;;3.03;;
77111;SDS011;66064;50.226;14.344;2023-06-14T13:12:09;4.30;;;3.60;;
77111;SDS011;66064;50.226;14.344;2023-06-14T13:14:37;4.57;;;3.47;;
77111;SDS011;66064;50.226;14.344;2023-06-14T13:17:05;3.80;;;3.20;;
77111;SDS011;66064;50.226;14.344;2023-06-14T13:19:31;4.53;;;3.47;;
77111;SDS011;66064;50.226;14.344;2023-06-14T13:21:57;5.47;;;3.83;;
77111;SDS011;66064;50.226;14.344;2023-06-14T13:24:22;3.67;;;3.30;;
77111;SDS011;66064;50.226;14.344;2023-06-14T13:26:49;3.50;;;3.20;;
77111;SDS011;66064;50.226;14.344;2023-06-14T13:29:14;4.15;;;3.40;;
77111;SDS011;66064;50.226;14.344;2023-06-14T13:31:41;5.82;;;4.07;;
77111;SDS011;66064;50.226;14.344;2023-06-14T13:34:06;6.65;;;3.53;;
77111;SDS011;66064;50.226;14.344;2023-06-14T13:36:33;3.67;;;3.17;;
77111;SDS011;66064;50.226;14.344;2023-06-14T13:38:59;4.57;;;3.72;;
77111;SDS011;66064;50.226;14.344;2023-06-14T13:41:25;11.65;;;3.78;;
77111;SDS011;66064;50.226;14.344;2023-06-14T13:43:59;3.78;;;3.45;;
77111;SDS011;66064;50.226;14.344;2023-06-14T13:46:26;4.72;;;3.50;;
77111;SDS011;66064;50.226;14.344;2023-06-14T13:48:53;4.55;;;3.47;;
77111;SDS011;66064;50.226;14.344;2023-06-14T13:51:19;4.43;;;3.58;;
77111;SDS011;66064;50.226;14.344;2023-06-14T13:53:47;3.60;;;3.00;;
77111;SDS011;66064;50.226;14.344;2023-06-14T13:56:15;6.53;;;3.53;;
77111;SDS011;66064;50.226;14.344;2023-06-14T13:58:41;4.93;;;4.43;;
77111;SDS011;66064;50.226;14.344;2023-06-14T14:01:08;4.25;;;3.72;;
77111;SDS011;66064;50.226;14.344;2023-06-14T14:03:34;3.72;;;3.13;;
77111;SDS011;66064;50.226;14.344;2023-06-14T14:06:01;3.58;;;3.28;;
77111;SDS011;66064;50.226;14.344;2023-06-14T14:08:28;6.50;;;3.10;;
77111;SDS011;66064;50.226;14.344;2023-06-14T14:10:55;4.63;;;3.50;;
77111;SDS011;66064;50.226;14.344;2023-06-14T14:13:21;3.88;;;3.35;;
77111;SDS011;66064;50.226;14.344;2023-06-14T14:15:48;4.95;;;3.58;;
77111;SDS011;66064;50.226;14.344;2023-06-14T14:18:17;4.78;;;3.97;;
77111;SDS011;66064;50.226;14.344;2023-06-14T14:20:46;6.10;;;4.28;;
77111;SDS011;66064;50.226;14.344;2023-06-14T14:23:12;4.10;;;3.55;;
77111;SDS011;66064;50.226;14.344;2023-06-14T14:25:38;5.55;;;3.88;;
77111;SDS011;66064;50.226;14.344;2023-06-14T14:28:04;4.22;;;3.70;;
77111;SDS011;66064;50.226;14.344;2023-06-14T14:30:31;4.45;;;3.47;;
77111;SDS011;66064;50.226;14.344;2023-06-14T14:32:58;4.78;;;3.30;;
77111;SDS011;66064;50.226;14.344;2023-06-14T14:35:24;4.68;;;4.15;;
77111;SDS011;66064;50.226;14.344;2023-06-14T14:37:55;4.57;;;3.85;;
77111;SDS011;66064;50.226;14.344;2023-06-14T14:40:22;4.43;;;3.40;;
77111;SDS011;66064;50.226;14.344;2023-06-14T14:42:47;4.82;;;3.38;;
77111;SDS011;66064;50.226;14.344;2023-06-14T14:45:14;3.85;;;3.45;;
77111;SDS011;66064;50.226;14.344;2023-06-14T14:47:40;4.43;;;3.28;;
77111;SDS011;66064;50.226;14.344;2023-06-14T14:50:06;4.35;;;3.13;;
77111;SDS011;66064;50.226;14.344;2023-06-14T14:56:15;4.60;;;3.50;;
77111;SDS011;66064;50.226;14.344;2023-06-14T14:58:42;4.53;;;3.33;;
77111;SDS011;66064;50.226;14.344;2023-06-14T15:01:09;3.72;;;3.20;;
77111;SDS011;66064;50.226;14.344;2023-06-14T15:03:36;4.47;;;3.30;;